createdAt,value
2017-09-22T00:01:46.013Z,84.42
2017-09-22T00:04:13.578Z,83.92
2017-09-22T00:06:40.417Z,83.77
2017-09-22T00:09:07.293Z,83.76
2017-09-22T00:11:34.163Z,82.03
2017-09-22T00:14:01.415Z,79.92
2017-09-22T00:16:28.231Z,81.10
2017-09-22T00:18:55.045Z,79.36
2017-09-22T00:21:21.883Z,78.15
2017-09-22T00:23:48.730Z,81.02
2017-09-22T00:26:15.587Z,81.65
2017-09-22T00:28:42.408Z,82.21
2017-09-22T00:31:10.000Z,82.01
2017-09-22T00:33:37.572Z,81.62
2017-09-22T00:36:05.133Z,82.54
2017-09-22T00:38:32.013Z,81.61
2017-09-22T00:40:59.579Z,81.51
2017-09-22T00:43:27.175Z,82.00
2017-09-22T00:45:54.046Z,82.41
2017-09-22T00:48:21.024Z,83.03
2017-09-22T00:50:47.947Z,79.84
2017-09-22T00:53:15.520Z,79.25
2017-09-22T00:55:43.101Z,81.02
2017-09-22T00:58:10.020Z,83.56
2017-09-22T01:00:37.940Z,84.95
2017-09-22T01:03:04.898Z,83.45
2017-09-22T01:05:31.730Z,83.82
2017-09-22T01:07:59.306Z,84.25
2017-09-22T01:10:27.979Z,83.62
2017-09-22T01:12:56.345Z,84.33
2017-09-22T01:25:08.344Z,84.45
2017-09-22T01:27:35.181Z,84.18
2017-09-22T01:30:02.998Z,83.71
2017-09-22T01:32:29.854Z,85.41
2017-09-22T01:34:56.737Z,82.39
2017-09-22T01:37:23.626Z,79.88
2017-09-22T01:39:50.595Z,79.09
2017-09-22T01:42:17.441Z,78.54
2017-09-22T01:44:45.253Z,78.19
2017-09-22T01:47:12.182Z,79.23
2017-09-22T01:49:39.015Z,82.59
2017-09-22T01:52:05.943Z,85.63
2017-09-22T01:54:33.493Z,83.96
2017-09-22T01:57:00.387Z,84.37
2017-09-22T01:59:28.197Z,83.14
2017-09-22T02:01:55.026Z,84.78
2017-09-22T02:04:22.619Z,83.95
2017-09-22T02:06:49.420Z,84.60
2017-09-22T02:09:16.326Z,84.95
2017-09-22T02:11:43.928Z,84.43
2017-09-22T02:14:10.723Z,83.92
2017-09-22T02:16:37.524Z,85.34
2017-09-22T02:19:05.035Z,86.88
2017-09-22T02:21:31.856Z,86.86
2017-09-22T02:23:59.414Z,85.11
2017-09-22T02:26:26.238Z,85.42
2017-09-22T02:28:53.067Z,83.92
2017-09-22T02:31:19.850Z,82.11
2017-09-22T02:33:46.666Z,80.91
2017-09-22T02:36:13.503Z,82.00
2017-09-22T02:38:40.303Z,84.99
2017-09-22T02:41:07.929Z,83.25
2017-09-22T02:43:34.733Z,82.55
2017-09-22T02:46:02.329Z,85.43
2017-09-22T02:48:29.151Z,85.96
2017-09-22T02:50:56.074Z,86.45
2017-09-22T02:53:22.869Z,82.79
2017-09-22T02:55:49.744Z,80.71
2017-09-22T02:58:16.571Z,80.42
2017-09-22T03:00:43.435Z,81.79
2017-09-22T03:03:10.280Z,83.34
2017-09-22T03:05:37.233Z,83.56
2017-09-22T03:08:04.086Z,84.33
2017-09-22T03:10:31.773Z,85.08
2017-09-22T03:12:58.653Z,86.52
2017-09-22T03:15:25.499Z,87.15
2017-09-22T03:17:52.310Z,82.69
2017-09-22T03:20:19.126Z,81.97
2017-09-22T03:22:45.928Z,84.08
2017-09-22T03:25:12.754Z,84.44
2017-09-22T03:27:39.577Z,82.70
2017-09-22T03:30:06.453Z,83.91
2017-09-22T03:32:33.279Z,82.30
2017-09-22T03:35:00.079Z,84.88
2017-09-22T03:37:26.909Z,85.81
2017-09-22T03:39:54.472Z,85.47
2017-09-22T03:42:21.336Z,84.68
2017-09-22T03:44:48.127Z,84.99
2017-09-22T03:47:15.734Z,85.79
2017-09-22T03:49:42.761Z,85.42
2017-09-22T03:52:10.324Z,85.84
2017-09-22T03:54:37.151Z,85.79
2017-09-22T03:57:04.002Z,84.15
2017-09-22T03:59:30.893Z,86.04
2017-09-22T04:01:57.770Z,86.48
2017-09-22T04:04:24.620Z,86.33
2017-09-22T04:06:51.502Z,84.27
2017-09-22T04:09:19.089Z,86.29
2017-09-22T04:11:46.644Z,86.62
2017-09-22T04:14:13.437Z,83.30
2017-09-22T04:16:40.257Z,83.82
2017-09-22T04:19:07.064Z,83.02
2017-09-22T04:21:33.873Z,83.95
2017-09-22T04:24:00.730Z,83.00
2017-09-22T04:26:27.563Z,84.30
2017-09-22T04:28:54.370Z,85.16
2017-09-22T04:31:21.963Z,85.56
2017-09-22T04:33:49.512Z,85.08
2017-09-22T04:36:16.354Z,84.93
2017-09-22T04:38:43.182Z,84.85
2017-09-22T04:41:10.012Z,85.81
2017-09-22T04:43:36.816Z,84.36
2017-09-22T04:46:03.686Z,83.61
2017-09-22T04:48:30.510Z,85.15
2017-09-22T04:50:58.102Z,84.52
2017-09-22T04:53:24.954Z,84.91
2017-09-22T04:55:51.848Z,84.10
2017-09-22T04:58:18.734Z,85.67
2017-09-22T05:00:45.623Z,87.13
2017-09-22T05:03:13.255Z,87.74
2017-09-22T05:05:40.092Z,88.21
2017-09-22T05:08:06.936Z,87.46
2017-09-22T05:10:33.779Z,87.61
2017-09-22T05:13:00.593Z,85.74
2017-09-22T05:15:27.475Z,85.96
2017-09-22T05:17:54.320Z,86.03
2017-09-22T05:20:21.156Z,83.73
2017-09-22T05:22:48.026Z,82.46
2017-09-22T05:25:14.873Z,84.67
2017-09-22T05:27:41.717Z,86.53
2017-09-22T05:30:09.311Z,88.05
2017-09-22T05:32:36.151Z,88.96
2017-09-22T05:35:03.759Z,88.34
2017-09-22T05:37:30.640Z,87.76
2017-09-22T05:39:57.511Z,86.12
2017-09-22T05:42:24.351Z,84.20
2017-09-22T05:44:51.212Z,86.61
2017-09-22T05:47:18.127Z,85.92
2017-09-22T05:49:44.996Z,86.14
2017-09-22T05:52:11.895Z,84.23
2017-09-22T05:54:38.789Z,83.62
2017-09-22T05:57:05.596Z,82.68
2017-09-22T05:59:33.225Z,81.98
2017-09-22T06:02:00.105Z,82.14
2017-09-22T06:04:26.949Z,81.47
2017-09-22T06:06:53.806Z,81.35
2017-09-22T06:09:20.668Z,80.86
2017-09-22T06:11:47.550Z,81.92
2017-09-22T06:14:14.429Z,80.92
2017-09-22T06:16:42.022Z,80.69
2017-09-22T06:19:09.670Z,85.88
2017-09-22T06:21:36.567Z,86.15
2017-09-22T06:24:03.477Z,87.86
2017-09-22T06:26:30.310Z,88.40
2017-09-22T06:28:57.174Z,87.09
2017-09-22T06:31:24.058Z,85.66
2017-09-22T06:33:50.926Z,82.50
2017-09-22T06:36:17.771Z,83.19
2017-09-22T06:38:44.641Z,83.80
2017-09-22T06:41:11.575Z,84.46
2017-09-22T06:43:38.418Z,86.92
2017-09-22T06:46:05.263Z,87.28
2017-09-22T06:48:32.121Z,84.21
2017-09-22T06:50:59.052Z,84.42
2017-09-22T06:53:25.896Z,83.87
2017-09-22T06:55:52.727Z,82.84
2017-09-22T06:58:20.287Z,82.86
2017-09-22T07:00:47.158Z,82.62
2017-09-22T07:03:14.745Z,82.61
2017-09-22T07:05:42.343Z,83.17
2017-09-22T07:08:09.213Z,82.93
2017-09-22T07:10:36.129Z,83.21
2017-09-22T07:13:02.957Z,83.27
2017-09-22T07:15:29.806Z,83.71
2017-09-22T07:17:56.754Z,83.64
2017-09-22T07:20:23.607Z,83.67
2017-09-22T07:22:50.438Z,83.44
2017-09-22T07:25:17.785Z,83.44
2017-09-22T07:27:44.731Z,82.09
2017-09-22T07:30:11.686Z,84.56
2017-09-22T07:32:38.553Z,84.28
2017-09-22T07:35:05.383Z,85.83
2017-09-22T07:37:32.537Z,84.86
2017-09-22T07:40:01.237Z,84.37
2017-09-22T07:42:28.190Z,85.00
2017-09-22T07:44:55.044Z,84.02
2017-09-22T07:47:21.950Z,83.65
2017-09-22T07:49:48.804Z,83.72
2017-09-22T07:52:16.369Z,83.21
2017-09-22T07:54:43.187Z,83.80
2017-09-22T07:57:10.004Z,83.55
2017-09-22T07:59:36.917Z,82.82
2017-09-22T08:02:03.781Z,82.78
2017-09-22T08:04:30.930Z,82.50
2017-09-22T08:06:57.760Z,81.98
2017-09-22T08:09:24.756Z,83.43
2017-09-22T08:11:51.613Z,82.09
2017-09-22T08:14:18.486Z,80.19
2017-09-22T08:16:45.369Z,81.04
2017-09-22T08:19:12.305Z,79.70
2017-09-22T08:21:39.147Z,80.16
2017-09-22T08:24:06.015Z,79.43
2017-09-22T08:26:32.888Z,78.44
2017-09-22T08:28:59.735Z,77.77
2017-09-22T08:31:26.577Z,79.67
2017-09-22T08:33:53.405Z,77.66
2017-09-22T08:36:20.264Z,80.10
2017-09-22T08:38:47.092Z,81.15
2017-09-22T08:41:14.634Z,80.00
2017-09-22T08:43:41.504Z,79.18
2017-09-22T08:46:08.359Z,78.29
2017-09-22T08:48:35.196Z,80.20
2017-09-22T08:51:02.019Z,77.74
2017-09-22T08:53:28.872Z,78.73
2017-09-22T08:55:55.819Z,76.78
2017-09-22T08:58:22.675Z,76.27
2017-09-22T09:00:49.529Z,76.43
2017-09-22T09:03:16.368Z,74.82
2017-09-22T09:05:43.954Z,74.99
2017-09-22T09:08:11.582Z,74.48
2017-09-22T09:10:38.432Z,73.85
2017-09-22T09:13:05.290Z,74.74
2017-09-22T09:15:32.195Z,75.15
2017-09-22T09:17:59.039Z,72.73
2017-09-22T09:20:25.866Z,73.87
2017-09-22T09:22:52.692Z,72.21
2017-09-22T09:25:20.249Z,72.22
2017-09-22T09:27:47.093Z,74.47
2017-09-22T09:30:13.950Z,71.22
2017-09-22T09:32:40.775Z,72.06
2017-09-22T09:35:07.658Z,70.72
2017-09-22T09:37:35.299Z,70.62
2017-09-22T09:40:02.211Z,71.09
2017-09-22T09:42:29.040Z,68.27
2017-09-22T09:44:55.859Z,68.53
2017-09-22T09:47:22.699Z,69.28
2017-09-22T09:49:49.596Z,69.23
2017-09-22T09:52:16.419Z,68.54
2017-09-22T09:54:43.391Z,68.13
2017-09-22T09:57:10.523Z,67.95
2017-09-22T09:59:37.962Z,67.16
2017-09-22T10:02:05.450Z,66.42
2017-09-22T10:04:33.089Z,66.00
2017-09-22T10:07:00.042Z,66.41
2017-09-22T10:09:27.158Z,66.43
2017-09-22T10:11:53.965Z,65.80
2017-09-22T10:14:20.784Z,66.16
2017-09-22T10:16:47.654Z,63.75
2017-09-22T10:19:15.993Z,64.86
2017-09-22T10:21:42.942Z,63.66
2017-09-22T10:24:09.781Z,63.38
2017-09-22T10:26:36.622Z,63.81
2017-09-22T10:29:04.188Z,63.84
2017-09-22T10:31:31.771Z,64.11
2017-09-22T10:33:58.627Z,63.78
2017-09-22T10:36:26.254Z,64.22
2017-09-22T10:38:53.064Z,63.31
2017-09-22T10:41:19.922Z,62.83
2017-09-22T10:43:46.792Z,63.98
2017-09-22T10:46:14.415Z,63.13
2017-09-22T10:48:41.278Z,62.36
2017-09-22T10:51:08.164Z,63.14
2017-09-22T10:53:35.037Z,62.67
2017-09-22T10:56:01.860Z,62.46
2017-09-22T10:58:28.688Z,61.72
2017-09-22T11:00:56.247Z,61.34
2017-09-22T11:03:23.129Z,61.69
2017-09-22T11:05:50.669Z,61.93
2017-09-22T11:08:17.490Z,61.73
2017-09-22T11:10:44.307Z,59.87
2017-09-22T11:13:11.164Z,59.27
2017-09-22T11:15:38.035Z,59.85
2017-09-22T11:18:04.886Z,59.62
2017-09-22T11:20:31.801Z,59.91
2017-09-22T11:22:59.508Z,59.52
2017-09-22T11:25:26.396Z,59.38
2017-09-22T11:27:53.994Z,60.00
2017-09-22T11:30:21.581Z,57.72
2017-09-22T11:32:48.391Z,59.43
2017-09-22T11:35:15.390Z,59.17
2017-09-22T11:37:42.235Z,59.37
2017-09-22T11:40:09.076Z,58.33
2017-09-22T11:42:36.028Z,57.92
2017-09-22T11:45:02.856Z,58.17
2017-09-22T11:47:29.666Z,58.69
2017-09-22T11:49:56.442Z,57.38
2017-09-22T11:52:23.254Z,56.43
2017-09-22T11:54:50.058Z,56.66
2017-09-22T11:57:16.929Z,56.23
2017-09-22T11:59:43.763Z,56.03
2017-09-22T12:02:10.563Z,55.36
2017-09-22T12:04:38.121Z,56.14
2017-09-22T12:07:05.359Z,57.33
2017-09-22T12:09:32.759Z,56.20
2017-09-22T12:12:01.072Z,57.46
2017-09-22T12:14:28.662Z,56.36
2017-09-22T12:16:56.256Z,58.14
2017-09-22T12:19:23.113Z,56.68
2017-09-22T12:21:49.922Z,56.30
2017-09-22T12:24:16.806Z,54.84
2017-09-22T12:26:44.459Z,55.59
2017-09-22T12:29:11.406Z,55.03
2017-09-22T12:31:38.267Z,53.53
2017-09-22T12:34:05.869Z,53.44
2017-09-22T12:36:32.742Z,53.62
2017-09-22T12:38:59.603Z,53.51
2017-09-22T12:41:26.465Z,54.84
2017-09-22T12:43:53.339Z,55.44
2017-09-22T12:46:20.179Z,56.32
2017-09-22T12:48:47.009Z,55.81
2017-09-22T12:51:13.851Z,55.02
2017-09-22T12:53:40.685Z,54.27
2017-09-22T12:56:07.502Z,55.99
2017-09-22T12:58:34.342Z,53.94
2017-09-22T13:01:01.209Z,53.17
2017-09-22T13:03:28.088Z,54.52
2017-09-22T13:05:54.968Z,53.38
2017-09-22T13:08:21.811Z,52.82
2017-09-22T13:10:48.883Z,54.01
2017-09-22T13:13:16.512Z,52.89
2017-09-22T13:15:44.126Z,52.50
2017-09-22T13:18:11.002Z,52.95
2017-09-22T13:20:37.896Z,52.12
2017-09-22T13:23:04.728Z,52.02
2017-09-22T13:25:31.564Z,53.04
2017-09-22T13:27:58.400Z,54.03
2017-09-22T13:30:26.043Z,54.42
2017-09-22T13:32:52.913Z,53.33
2017-09-22T13:35:19.808Z,53.37
2017-09-22T13:37:46.675Z,52.40
2017-09-22T13:40:13.503Z,52.91
2017-09-22T13:42:40.411Z,52.62
2017-09-22T13:45:07.291Z,53.49
2017-09-22T13:47:34.144Z,53.05
2017-09-22T13:50:01.007Z,52.53
2017-09-22T13:52:27.834Z,52.90
2017-09-22T13:54:55.480Z,53.11
2017-09-22T13:57:22.301Z,53.52
2017-09-22T13:59:49.104Z,55.42
2017-09-22T14:02:15.989Z,54.42
2017-09-22T14:04:43.615Z,53.82
2017-09-22T14:07:10.456Z,52.77
2017-09-22T14:09:37.390Z,53.64
2017-09-22T14:12:04.948Z,53.74
2017-09-22T14:14:31.788Z,53.15
2017-09-22T14:16:58.630Z,52.78
2017-09-22T14:19:25.540Z,52.80
2017-09-22T14:21:52.555Z,53.00
2017-09-22T14:24:19.468Z,53.38
2017-09-22T14:26:46.356Z,52.87
2017-09-22T14:29:13.203Z,53.56
2017-09-22T14:31:40.828Z,54.24
2017-09-22T14:34:07.699Z,54.20
2017-09-22T14:36:34.535Z,54.97
2017-09-22T14:39:01.360Z,55.02
2017-09-22T14:41:28.224Z,54.86
2017-09-22T14:43:55.830Z,55.12
2017-09-22T14:46:22.668Z,55.52
2017-09-22T14:48:50.261Z,55.43
2017-09-22T14:51:17.136Z,55.72
2017-09-22T14:53:43.989Z,56.69
2017-09-22T14:56:10.807Z,56.73
2017-09-22T14:58:37.685Z,57.34
2017-09-22T15:01:04.583Z,56.50
2017-09-22T15:03:31.466Z,57.08
2017-09-22T15:05:58.334Z,56.73
2017-09-22T15:08:28.582Z,57.57
2017-09-22T15:10:55.490Z,58.98
2017-09-22T15:13:22.316Z,58.17
2017-09-22T15:15:49.128Z,58.00
2017-09-22T15:18:16.021Z,57.91
2017-09-22T15:20:42.895Z,57.41
2017-09-22T15:23:09.763Z,58.61
2017-09-22T15:25:36.586Z,58.05
2017-09-22T15:28:04.596Z,58.82
2017-09-22T15:30:31.458Z,59.12
2017-09-22T15:32:58.263Z,58.92
2017-09-22T15:35:25.799Z,59.89
2017-09-22T15:37:52.761Z,59.06
2017-09-22T15:40:19.578Z,59.94
2017-09-22T15:42:46.422Z,59.09
2017-09-22T15:45:14.002Z,59.37
2017-09-22T15:47:41.554Z,59.11
2017-09-22T15:50:08.352Z,58.73
2017-09-22T15:52:35.176Z,58.05
2017-09-22T15:55:02.833Z,58.17
2017-09-22T15:57:29.721Z,58.18
2017-09-22T15:59:56.631Z,58.38
2017-09-22T16:02:23.483Z,58.80
2017-09-22T16:04:50.289Z,59.10
2017-09-22T16:07:17.127Z,59.69
2017-09-22T16:09:44.688Z,61.22
2017-09-22T16:12:11.518Z,61.29
2017-09-22T16:14:39.118Z,61.32
2017-09-22T16:17:05.976Z,62.39
2017-09-22T16:19:32.916Z,62.79
2017-09-22T16:21:59.785Z,63.67
2017-09-22T16:24:26.680Z,64.77
2017-09-22T16:26:53.517Z,63.86
2017-09-22T16:29:21.825Z,62.77
2017-09-22T16:31:48.720Z,64.79
2017-09-22T16:34:15.562Z,65.07
2017-09-22T16:36:42.634Z,66.20
2017-09-22T16:39:09.492Z,67.01
2017-09-22T16:41:37.098Z,67.26
2017-09-22T16:44:03.985Z,67.22
2017-09-22T16:46:31.628Z,68.66
2017-09-22T16:48:58.486Z,68.29
2017-09-22T16:51:25.371Z,69.51
2017-09-22T16:53:52.261Z,69.62
2017-09-22T16:56:19.085Z,69.22
2017-09-22T16:58:45.974Z,70.46
2017-09-22T17:01:12.840Z,70.62
2017-09-22T17:03:40.435Z,70.67
2017-09-22T17:06:07.293Z,70.39
2017-09-22T17:08:34.900Z,71.49
2017-09-22T17:11:02.667Z,71.99
2017-09-22T17:13:29.492Z,72.25
2017-09-22T17:15:56.323Z,72.96
2017-09-22T17:18:23.211Z,73.14
2017-09-22T17:20:50.029Z,72.94
2017-09-22T17:23:16.869Z,73.47
2017-09-22T17:25:43.687Z,74.21
2017-09-22T17:28:10.571Z,73.64
2017-09-22T17:30:38.131Z,73.79
2017-09-22T17:33:05.052Z,74.04
2017-09-22T17:35:31.942Z,73.41
2017-09-22T17:37:58.795Z,74.85
2017-09-22T17:40:25.686Z,73.41
2017-09-22T17:42:52.667Z,75.12
2017-09-22T17:45:20.366Z,75.34
2017-09-22T17:47:47.294Z,74.86
2017-09-22T17:50:14.152Z,74.80
2017-09-22T17:52:41.208Z,74.90
2017-09-22T17:55:08.169Z,76.01
2017-09-22T17:57:35.061Z,77.04
2017-09-22T18:00:02.766Z,77.22
2017-09-22T18:02:29.606Z,77.78
2017-09-22T18:04:57.192Z,77.35
2017-09-22T18:07:24.810Z,77.45
2017-09-22T18:09:51.696Z,77.13
2017-09-22T18:12:18.670Z,77.34
2017-09-22T18:14:45.552Z,77.90
2017-09-22T18:17:13.182Z,76.75
2017-09-22T18:19:40.088Z,75.93
2017-09-22T18:22:06.964Z,76.71
2017-09-22T18:24:33.823Z,76.41
2017-09-22T18:27:00.680Z,77.18
2017-09-22T18:29:28.256Z,76.49
2017-09-22T18:31:55.179Z,75.82
2017-09-22T18:34:22.017Z,76.65
2017-09-22T18:36:49.648Z,78.31
2017-09-22T18:39:16.481Z,78.87
2017-09-22T18:41:43.352Z,78.74
2017-09-22T18:44:10.225Z,78.62
2017-09-22T18:46:37.166Z,78.92
2017-09-22T18:49:04.824Z,79.04
2017-09-22T18:51:31.730Z,78.99
2017-09-22T18:53:58.696Z,79.52
2017-09-22T18:56:25.540Z,79.40
2017-09-22T18:58:52.451Z,79.82
2017-09-22T19:01:19.308Z,79.94
2017-09-22T19:03:46.187Z,79.63
2017-09-22T19:06:13.098Z,80.44
2017-09-22T19:08:40.124Z,80.61
2017-09-22T19:11:07.097Z,80.00
2017-09-22T19:13:34.004Z,80.45
2017-09-22T19:16:01.604Z,80.26
2017-09-22T19:18:28.432Z,80.58
2017-09-22T19:20:55.506Z,80.33
2017-09-22T19:23:23.153Z,81.35
2017-09-22T19:25:50.010Z,81.01
2017-09-22T19:28:16.823Z,81.16
2017-09-22T19:30:44.530Z,81.33
2017-09-22T19:33:11.668Z,81.39
2017-09-22T19:35:39.282Z,81.01
2017-09-22T19:38:06.437Z,81.80
2017-09-22T19:40:33.314Z,81.24
2017-09-22T19:43:00.177Z,81.54
2017-09-22T19:45:27.050Z,81.87
2017-09-22T19:47:54.261Z,81.68
2017-09-22T19:50:21.163Z,81.64
2017-09-22T19:52:47.979Z,81.92
2017-09-22T19:55:14.791Z,81.93
2017-09-22T19:57:41.684Z,81.57
2017-09-22T20:00:08.547Z,81.79
2017-09-22T20:02:35.430Z,81.47
2017-09-22T20:05:02.574Z,81.86
2017-09-22T20:07:29.442Z,82.01
2017-09-22T20:09:56.344Z,82.39
2017-09-22T20:12:23.276Z,82.16
2017-09-22T20:14:50.175Z,81.54
2017-09-22T20:17:17.174Z,81.98
2017-09-22T20:19:44.367Z,82.09
2017-09-22T20:22:11.192Z,82.50
2017-09-22T20:24:38.032Z,82.52
2017-09-22T20:27:04.875Z,82.18
2017-09-22T20:29:32.470Z,82.63
2017-09-22T20:31:59.330Z,82.83
2017-09-22T20:34:26.241Z,82.18
2017-09-22T20:36:53.104Z,82.41
2017-09-22T20:39:19.942Z,82.47
2017-09-22T20:41:46.818Z,82.14
2017-09-22T20:44:13.754Z,82.55
2017-09-22T20:46:40.620Z,82.85
2017-09-22T20:49:07.492Z,82.75
2017-09-22T20:51:34.320Z,83.19
2017-09-22T20:54:15.829Z,82.71
2017-09-22T20:56:42.644Z,83.17
2017-09-22T20:59:09.497Z,83.44
2017-09-22T21:01:36.304Z,82.99
2017-09-22T21:04:03.179Z,83.26
2017-09-22T21:06:30.070Z,83.09
2017-09-22T21:08:56.956Z,83.18
2017-09-22T21:11:23.808Z,82.69
2017-09-22T21:13:50.652Z,82.97
2017-09-22T21:16:17.541Z,83.98
2017-09-22T21:18:44.362Z,83.22
2017-09-22T21:21:11.315Z,82.97
2017-09-22T21:23:38.184Z,82.96
2017-09-22T21:26:05.121Z,83.09
2017-09-22T21:28:32.005Z,83.40
2017-09-22T21:30:58.853Z,83.09
2017-09-22T21:33:25.707Z,83.74
2017-09-22T21:35:52.533Z,83.54
2017-09-22T21:38:19.410Z,83.01
2017-09-22T21:40:47.020Z,83.57
2017-09-22T21:43:13.858Z,84.05
2017-09-22T21:45:40.708Z,84.14
2017-09-22T21:48:08.334Z,83.71
2017-09-22T21:50:36.078Z,83.39
2017-09-22T21:53:03.723Z,84.30
2017-09-22T21:55:30.734Z,84.32
2017-09-22T21:57:57.653Z,83.99
2017-09-22T22:00:24.623Z,83.15
2017-09-22T22:02:51.545Z,83.49
2017-09-22T22:05:38.778Z,83.90
2017-09-22T22:08:05.672Z,83.69
2017-09-22T22:10:32.602Z,83.80
2017-09-22T22:12:59.520Z,84.09
2017-09-22T22:15:26.437Z,83.58
2017-09-22T22:17:53.344Z,84.36
2017-09-22T22:20:21.958Z,84.13
2017-09-22T22:22:49.646Z,84.35
2017-09-22T22:25:16.595Z,84.12
2017-09-22T22:27:44.294Z,83.80
2017-09-22T22:30:11.205Z,84.16
2017-09-22T22:32:38.894Z,84.21
2017-09-22T22:35:07.809Z,84.61
2017-09-22T22:37:34.844Z,84.49
2017-09-22T22:40:01.782Z,84.54
2017-09-22T22:42:28.708Z,85.79
2017-09-22T22:44:55.610Z,85.13
2017-09-22T22:47:23.351Z,84.27
2017-09-22T22:49:51.087Z,83.50
2017-09-22T22:52:18.033Z,83.29
2017-09-22T22:54:44.898Z,84.14
2017-09-22T22:57:11.829Z,83.70
2017-09-22T22:59:39.446Z,83.79
2017-09-22T23:02:06.308Z,84.23
2017-09-22T23:04:33.223Z,84.76
2017-09-22T23:07:00.095Z,84.92
2017-09-22T23:09:27.676Z,84.58
2017-09-22T23:11:55.429Z,84.97
2017-09-22T23:14:23.050Z,85.32
2017-09-22T23:16:50.373Z,85.49
2017-09-22T23:19:18.615Z,85.34
2017-09-22T23:21:45.927Z,85.62
2017-09-22T23:24:12.883Z,86.34
2017-09-22T23:26:40.164Z,85.47
2017-09-22T23:29:07.636Z,85.94
2017-09-22T23:31:34.639Z,86.29
2017-09-22T23:34:01.547Z,85.83
2017-09-22T23:36:28.455Z,86.08
2017-09-22T23:38:55.324Z,85.81
2017-09-22T23:41:23.526Z,86.51
2017-09-22T23:43:51.136Z,85.99
2017-09-22T23:46:18.841Z,86.14
2017-09-22T23:48:45.927Z,85.98
2017-09-22T23:51:12.884Z,85.81
2017-09-22T23:53:40.108Z,86.24
2017-09-22T23:56:07.159Z,86.10
2017-09-22T23:58:34.791Z,85.71
